Decoded Metar for PFCL ( in ) (IATA:) | Meteo·Mobile Aviation Weather
aviador You're here:

PFCL Decoded Metar

in
Report Time2018-08-21 18:56:00
UTC Time2018-08-21 19:56:16
Flight Rules ifr IFR
Wind260° at 06 kt
W.Decomp.*RWY 18: 1.0 kt HW 5.9 kt RCW
W.Rank260° ranks 13
Current wind is below 260° avg. (7.5)
Visibility9999 m
Phenomena:N/A
Clouds:Broken 005 Hf
Overcast 010 Hf
Expected CloudBase > 400 ft AGL from Temp-Dew spread
Ceiling500 ft
Temp13°C
Dew Point12°C (94% RH)
AAT11.5°C
QNH1009 hPa
Raw Report
PFCL 211856Z AUTO 26006KT 10SM BKN005 OVC010 13/12 A2980 RMK AO2
SLP086 T01280122 TSNO=

Extra information for PFCL:More info

Social comments